sensor_id;sensor_type;location;lat;lon;timestamp;P1;durP1;ratioP1;P2;durP2;ratioP2
26269;SDS011;15937;50.612;6.656;2023-04-01T00:02:48;2.60;;;1.30;;
26269;SDS011;15937;50.612;6.656;2023-04-01T00:06:49;3.00;;;0.95;;
26269;SDS011;15937;50.612;6.656;2023-04-01T00:10:52;2.78;;;0.93;;
26269;SDS011;15937;50.612;6.656;2023-04-01T00:14:55;5.67;;;0.90;;
26269;SDS011;15937;50.612;6.656;2023-04-01T00:18:56;1.80;;;1.00;;
26269;SDS011;15937;50.612;6.656;2023-04-01T00:22:58;2.35;;;1.00;;
26269;SDS011;15937;50.612;6.656;2023-04-01T00:27:00;1.13;;;0.90;;
26269;SDS011;15937;50.612;6.656;2023-04-01T00:31:05;1.25;;;0.90;;
26269;SDS011;15937;50.612;6.656;2023-04-01T00:35:08;1.60;;;1.08;;
26269;SDS011;15937;50.612;6.656;2023-04-01T00:39:10;1.00;;;0.80;;
26269;SDS011;15937;50.612;6.656;2023-04-01T00:43:13;2.33;;;1.08;;
26269;SDS011;15937;50.612;6.656;2023-04-01T00:47:19;4.63;;;0.88;;
26269;SDS011;15937;50.612;6.656;2023-04-01T00:51:23;0.98;;;0.80;;
26269;SDS011;15937;50.612;6.656;2023-04-01T00:55:28;1.98;;;1.05;;
26269;SDS011;15937;50.612;6.656;2023-04-01T00:59:45;1.63;;;1.10;;
26269;SDS011;15937;50.612;6.656;2023-04-01T01:03:50;1.17;;;1.00;;
26269;SDS011;15937;50.612;6.656;2023-04-01T01:20:42;0.98;;;0.75;;
26269;SDS011;15937;50.612;6.656;2023-04-01T01:29:40;3.53;;;1.20;;
26269;SDS011;15937;50.612;6.656;2023-04-01T01:38:24;1.73;;;0.60;;
26269;SDS011;15937;50.612;6.656;2023-04-01T01:42:30;0.85;;;0.70;;
26269;SDS011;15937;50.612;6.656;2023-04-01T01:46:34;1.65;;;1.00;;
26269;SDS011;15937;50.612;6.656;2023-04-01T01:50:39;2.42;;;0.90;;
26269;SDS011;15937;50.612;6.656;2023-04-01T01:54:52;0.88;;;0.88;;
26269;SDS011;15937;50.612;6.656;2023-04-01T01:58:59;2.17;;;0.95;;
26269;SDS011;15937;50.612;6.656;2023-04-01T02:03:08;3.70;;;1.08;;
26269;SDS011;15937;50.612;6.656;2023-04-01T02:11:29;2.05;;;0.70;;
26269;SDS011;15937;50.612;6.656;2023-04-01T02:15:42;5.68;;;0.80;;
26269;SDS011;15937;50.612;6.656;2023-04-01T02:24:09;1.13;;;0.80;;
26269;SDS011;15937;50.612;6.656;2023-04-01T02:28:14;2.20;;;0.80;;
26269;SDS011;15937;50.612;6.656;2023-04-01T02:32:20;1.25;;;0.80;;
26269;SDS011;15937;50.612;6.656;2023-04-01T02:36:22;1.02;;;0.93;;
26269;SDS011;15937;50.612;6.656;2023-04-01T02:40:25;3.40;;;0.90;;
26269;SDS011;15937;50.612;6.656;2023-04-01T02:44:27;2.78;;;0.95;;
26269;SDS011;15937;50.612;6.656;2023-04-01T02:48:28;0.60;;;0.60;;
26269;SDS011;15937;50.612;6.656;2023-04-01T02:52:31;0.63;;;0.63;;
26269;SDS011;15937;50.612;6.656;2023-04-01T02:56:33;2.45;;;0.73;;
26269;SDS011;15937;50.612;6.656;2023-04-01T03:00:34;1.98;;;0.70;;
26269;SDS011;15937;50.612;6.656;2023-04-01T03:04:36;5.05;;;0.88;;
26269;SDS011;15937;50.612;6.656;2023-04-01T03:08:38;0.70;;;0.70;;
26269;SDS011;15937;50.612;6.656;2023-04-01T03:12:40;1.17;;;1.08;;
26269;SDS011;15937;50.612;6.656;2023-04-01T03:16:42;0.70;;;0.70;;
26269;SDS011;15937;50.612;6.656;2023-04-01T03:20:43;1.05;;;0.60;;
26269;SDS011;15937;50.612;6.656;2023-04-01T03:24:45;0.70;;;0.68;;
26269;SDS011;15937;50.612;6.656;2023-04-01T03:28:50;1.05;;;0.90;;
26269;SDS011;15937;50.612;6.656;2023-04-01T03:32:52;0.60;;;0.60;;
26269;SDS011;15937;50.612;6.656;2023-04-01T03:36:54;1.20;;;0.60;;
26269;SDS011;15937;50.612;6.656;2023-04-01T03:40:56;0.60;;;0.60;;
26269;SDS011;15937;50.612;6.656;2023-04-01T03:44:57;2.10;;;0.90;;
26269;SDS011;15937;50.612;6.656;2023-04-01T03:48:59;1.63;;;0.70;;
26269;SDS011;15937;50.612;6.656;2023-04-01T03:53:01;0.98;;;0.80;;
26269;SDS011;15937;50.612;6.656;2023-04-01T03:57:03;0.60;;;0.60;;
26269;SDS011;15937;50.612;6.656;2023-04-01T04:01:14;2.22;;;0.70;;
26269;SDS011;15937;50.612;6.656;2023-04-01T04:05:25;0.60;;;0.60;;
26269;SDS011;15937;50.612;6.656;2023-04-01T04:09:27;1.50;;;0.77;;
26269;SDS011;15937;50.612;6.656;2023-04-01T04:13:31;2.15;;;0.65;;
26269;SDS011;15937;50.612;6.656;2023-04-01T04:17:33;0.65;;;0.65;;
26269;SDS011;15937;50.612;6.656;2023-04-01T04:21:35;1.75;;;0.70;;
26269;SDS011;15937;50.612;6.656;2023-04-01T04:25:37;1.48;;;0.80;;
26269;SDS011;15937;50.612;6.656;2023-04-01T04:29:38;0.68;;;0.65;;
26269;SDS011;15937;50.612;6.656;2023-04-01T04:33:40;0.70;;;0.70;;
26269;SDS011;15937;50.612;6.656;2023-04-01T04:37:42;2.08;;;0.80;;
26269;SDS011;15937;50.612;6.656;2023-04-01T04:41:43;1.25;;;0.80;;
26269;SDS011;15937;50.612;6.656;2023-04-01T04:45:45;0.75;;;0.75;;
26269;SDS011;15937;50.612;6.656;2023-04-01T04:49:47;0.60;;;0.60;;
26269;SDS011;15937;50.612;6.656;2023-04-01T04:53:49;0.73;;;0.70;;
26269;SDS011;15937;50.612;6.656;2023-04-01T04:57:53;0.80;;;0.70;;
26269;SDS011;15937;50.612;6.656;2023-04-01T05:01:54;0.93;;;0.70;;
26269;SDS011;15937;50.612;6.656;2023-04-01T05:05:56;0.77;;;0.70;;
26269;SDS011;15937;50.612;6.656;2023-04-01T05:09:58;1.38;;;1.20;;
26269;SDS011;15937;50.612;6.656;2023-04-01T05:13:59;0.80;;;0.70;;
26269;SDS011;15937;50.612;6.656;2023-04-01T05:18:01;0.60;;;0.60;;
26269;SDS011;15937;50.612;6.656;2023-04-01T05:22:03;0.88;;;0.88;;
26269;SDS011;15937;50.612;6.656;2023-04-01T05:26:07;0.70;;;0.70;;
26269;SDS011;15937;50.612;6.656;2023-04-01T05:30:11;0.80;;;0.80;;
26269;SDS011;15937;50.612;6.656;2023-04-01T05:34:13;3.25;;;2.35;;
26269;SDS011;15937;50.612;6.656;2023-04-01T05:38:15;2.72;;;1.90;;
26269;SDS011;15937;50.612;6.656;2023-04-01T05:42:16;0.63;;;0.63;;
26269;SDS011;15937;50.612;6.656;2023-04-01T05:46:18;3.53;;;1.30;;
26269;SDS011;15937;50.612;6.656;2023-04-01T05:50:20;3.63;;;1.35;;
26269;SDS011;15937;50.612;6.656;2023-04-01T05:54:22;1.38;;;0.80;;
26269;SDS011;15937;50.612;6.656;2023-04-01T05:58:24;0.93;;;0.90;;
26269;SDS011;15937;50.612;6.656;2023-04-01T06:02:26;1.08;;;0.98;;
26269;SDS011;15937;50.612;6.656;2023-04-01T06:06:29;1.00;;;0.98;;
26269;SDS011;15937;50.612;6.656;2023-04-01T06:10:39;2.65;;;1.10;;
26269;SDS011;15937;50.612;6.656;2023-04-01T06:36:25;0.98;;;0.80;;
26269;SDS011;15937;50.612;6.656;2023-04-01T06:40:40;2.75;;;1.85;;
26269;SDS011;15937;50.612;6.656;2023-04-01T06:44:55;1.83;;;1.67;;
26269;SDS011;15937;50.612;6.656;2023-04-01T06:54:24;0.98;;;0.90;;
26269;SDS011;15937;50.612;6.656;2023-04-01T06:58:41;2.15;;;1.75;;
26269;SDS011;15937;50.612;6.656;2023-04-01T07:07:21;4.20;;;1.02;;
26269;SDS011;15937;50.612;6.656;2023-04-01T07:11:34;3.83;;;1.40;;
26269;SDS011;15937;50.612;6.656;2023-04-01T07:15:39;0.80;;;0.80;;
26269;SDS011;15937;50.612;6.656;2023-04-01T07:20:03;2.50;;;0.90;;
26269;SDS011;15937;50.612;6.656;2023-04-01T07:24:17;0.80;;;0.80;;
26269;SDS011;15937;50.612;6.656;2023-04-01T07:28:30;1.40;;;1.20;;
26269;SDS011;15937;50.612;6.656;2023-04-01T07:32:47;1.02;;;0.93;;
26269;SDS011;15937;50.612;6.656;2023-04-01T07:37:03;0.80;;;0.80;;
26269;SDS011;15937;50.612;6.656;2023-04-01T07:41:13;1.77;;;1.15;;
26269;SDS011;15937;50.612;6.656;2023-04-01T07:49:43;1.23;;;1.10;;
26269;SDS011;15937;50.612;6.656;2023-04-01T08:02:34;2.42;;;1.40;;
26269;SDS011;15937;50.612;6.656;2023-04-01T08:15:23;1.58;;;1.10;;
26269;SDS011;15937;50.612;6.656;2023-04-01T08:19:42;1.05;;;0.95;;
26269;SDS011;15937;50.612;6.656;2023-04-01T08:24:05;2.67;;;0.88;;
26269;SDS011;15937;50.612;6.656;2023-04-01T08:28:41;1.05;;;0.80;;
26269;SDS011;15937;50.612;6.656;2023-04-01T08:32:49;0.70;;;0.70;;
26269;SDS011;15937;50.612;6.656;2023-04-01T08:37:02;1.33;;;0.90;;
26269;SDS011;15937;50.612;6.656;2023-04-01T08:41:21;1.25;;;1.10;;
26269;SDS011;15937;50.612;6.656;2023-04-01T08:50:46;2.17;;;1.02;;
26269;SDS011;15937;50.612;6.656;2023-04-01T09:12:57;0.98;;;0.88;;
26269;SDS011;15937;50.612;6.656;2023-04-01T09:39:17;0.98;;;0.70;;
26269;SDS011;15937;50.612;6.656;2023-04-01T09:43:49;1.33;;;1.02;;
26269;SDS011;15937;50.612;6.656;2023-04-01T09:48:23;0.85;;;0.75;;
26269;SDS011;15937;50.612;6.656;2023-04-01T09:52:38;1.05;;;0.80;;
26269;SDS011;15937;50.612;6.656;2023-04-01T09:56:54;0.85;;;0.85;;
26269;SDS011;15937;50.612;6.656;2023-04-01T10:05:58;0.93;;;0.88;;
26269;SDS011;15937;50.612;6.656;2023-04-01T10:14:23;0.73;;;0.70;;
26269;SDS011;15937;50.612;6.656;2023-04-01T10:44:44;0.70;;;0.70;;
26269;SDS011;15937;50.612;6.656;2023-04-01T10:53:32;0.88;;;0.88;;
26269;SDS011;15937;50.612;6.656;2023-04-01T11:06:30;1.38;;;0.90;;
26269;SDS011;15937;50.612;6.656;2023-04-01T11:20:09;1.23;;;0.95;;
26269;SDS011;15937;50.612;6.656;2023-04-01T11:29:18;0.80;;;0.80;;
26269;SDS011;15937;50.612;6.656;2023-04-01T11:33:41;0.98;;;0.60;;
26269;SDS011;15937;50.612;6.656;2023-04-01T11:55:33;0.60;;;0.60;;
26269;SDS011;15937;50.612;6.656;2023-04-01T11:59:59;1.30;;;1.17;;
26269;SDS011;15937;50.612;6.656;2023-04-01T12:21:33;1.08;;;0.80;;
26269;SDS011;15937;50.612;6.656;2023-04-01T13:01:39;0.80;;;0.80;;
26269;SDS011;15937;50.612;6.656;2023-04-01T13:23:32;0.80;;;0.80;;
26269;SDS011;15937;50.612;6.656;2023-04-01T13:27:45;0.65;;;0.65;;
26269;SDS011;15937;50.612;6.656;2023-04-01T13:36:59;0.70;;;0.70;;
26269;SDS011;15937;50.612;6.656;2023-04-01T13:41:30;2.30;;;0.80;;
26269;SDS011;15937;50.612;6.656;2023-04-01T13:50:04;0.80;;;0.80;;
26269;SDS011;15937;50.612;6.656;2023-04-01T14:07:39;0.80;;;0.80;;
26269;SDS011;15937;50.612;6.656;2023-04-01T14:16:02;0.80;;;0.75;;
26269;SDS011;15937;50.612;6.656;2023-04-01T14:20:17;1.38;;;0.90;;
26269;SDS011;15937;50.612;6.656;2023-04-01T14:50:53;1.33;;;0.80;;
26269;SDS011;15937;50.612;6.656;2023-04-01T14:54:58;0.70;;;0.70;;
26269;SDS011;15937;50.612;6.656;2023-04-01T15:03:07;0.82;;;0.70;;
26269;SDS011;15937;50.612;6.656;2023-04-01T15:07:21;0.70;;;0.70;;
26269;SDS011;15937;50.612;6.656;2023-04-01T15:29:02;1.85;;;1.35;;
26269;SDS011;15937;50.612;6.656;2023-04-01T15:33:41;1.13;;;1.00;;
26269;SDS011;15937;50.612;6.656;2023-04-01T15:38:16;3.08;;;1.58;;
26269;SDS011;15937;50.612;6.656;2023-04-01T15:46:45;0.75;;;0.75;;
26269;SDS011;15937;50.612;6.656;2023-04-01T15:51:09;1.55;;;1.20;;
26269;SDS011;15937;50.612;6.656;2023-04-01T16:04:58;2.15;;;1.40;;
26269;SDS011;15937;50.612;6.656;2023-04-01T16:09:29;1.40;;;1.25;;
26269;SDS011;15937;50.612;6.656;2023-04-01T16:14:56;2.40;;;2.10;;
26269;SDS011;15937;50.612;6.656;2023-04-01T16:23:22;1.40;;;1.20;;
26269;SDS011;15937;50.612;6.656;2023-04-01T16:27:53;2.53;;;1.20;;
26269;SDS011;15937;50.612;6.656;2023-04-01T16:36:30;0.93;;;0.93;;
26269;SDS011;15937;50.612;6.656;2023-04-01T16:49:31;2.05;;;1.63;;
26269;SDS011;15937;50.612;6.656;2023-04-01T16:53:53;2.03;;;1.50;;
26269;SDS011;15937;50.612;6.656;2023-04-01T16:58:08;2.53;;;1.08;;
26269;SDS011;15937;50.612;6.656;2023-04-01T17:02:14;2.08;;;1.40;;
26269;SDS011;15937;50.612;6.656;2023-04-01T17:06:28;2.10;;;1.33;;
26269;SDS011;15937;50.612;6.656;2023-04-01T17:11:04;1.77;;;1.25;;
26269;SDS011;15937;50.612;6.656;2023-04-01T17:28:59;1.15;;;1.13;;
26269;SDS011;15937;50.612;6.656;2023-04-01T17:42:08;3.58;;;1.70;;
26269;SDS011;15937;50.612;6.656;2023-04-01T17:46:22;4.87;;;2.57;;
26269;SDS011;15937;50.612;6.656;2023-04-01T17:55:19;2.63;;;1.80;;
26269;SDS011;15937;50.612;6.656;2023-04-01T17:59:38;5.03;;;1.88;;
26269;SDS011;15937;50.612;6.656;2023-04-01T18:12:52;8.60;;;3.10;;
26269;SDS011;15937;50.612;6.656;2023-04-01T18:17:17;6.85;;;2.95;;
26269;SDS011;15937;50.612;6.656;2023-04-01T18:21:29;1.60;;;1.50;;
26269;SDS011;15937;50.612;6.656;2023-04-01T18:25:55;1.30;;;1.20;;
26269;SDS011;15937;50.612;6.656;2023-04-01T18:30:17;1.52;;;1.30;;
26269;SDS011;15937;50.612;6.656;2023-04-01T18:35:16;2.50;;;1.80;;
26269;SDS011;15937;50.612;6.656;2023-04-01T18:48:22;1.88;;;1.70;;
26269;SDS011;15937;50.612;6.656;2023-04-01T18:52:40;3.55;;;2.10;;
26269;SDS011;15937;50.612;6.656;2023-04-01T18:56:44;4.97;;;2.13;;
26269;SDS011;15937;50.612;6.656;2023-04-01T19:00:58;3.60;;;1.87;;
26269;SDS011;15937;50.612;6.656;2023-04-01T19:26:40;1.45;;;1.35;;
26269;SDS011;15937;50.612;6.656;2023-04-01T19:30:59;5.70;;;1.50;;
26269;SDS011;15937;50.612;6.656;2023-04-01T19:35:34;3.08;;;1.77;;
26269;SDS011;15937;50.612;6.656;2023-04-01T19:52:59;3.60;;;1.77;;
26269;SDS011;15937;50.612;6.656;2023-04-01T19:57:12;2.22;;;1.30;;
26269;SDS011;15937;50.612;6.656;2023-04-01T20:15:22;1.85;;;1.08;;
26269;SDS011;15937;50.612;6.656;2023-04-01T20:19:38;2.00;;;1.55;;
26269;SDS011;15937;50.612;6.656;2023-04-01T20:23:50;4.63;;;1.88;;
26269;SDS011;15937;50.612;6.656;2023-04-01T20:32:28;2.25;;;1.25;;
26269;SDS011;15937;50.612;6.656;2023-04-01T20:58:09;4.15;;;1.17;;
26269;SDS011;15937;50.612;6.656;2023-04-01T22:00:38;1.88;;;0.98;;
26269;SDS011;15937;50.612;6.656;2023-04-01T22:09:18;1.88;;;1.42;;
26269;SDS011;15937;50.612;6.656;2023-04-01T22:13:32;1.48;;;1.20;;
26269;SDS011;15937;50.612;6.656;2023-04-01T22:22:13;1.10;;;1.00;;
26269;SDS011;15937;50.612;6.656;2023-04-01T22:30:35;1.63;;;1.30;;
26269;SDS011;15937;50.612;6.656;2023-04-01T22:35:22;2.95;;;0.93;;
26269;SDS011;15937;50.612;6.656;2023-04-01T22:43:41;0.90;;;0.90;;
26269;SDS011;15937;50.612;6.656;2023-04-01T22:47:47;1.98;;;1.17;;
26269;SDS011;15937;50.612;6.656;2023-04-01T22:56:32;4.15;;;1.60;;
26269;SDS011;15937;50.612;6.656;2023-04-01T23:00:48;4.50;;;1.77;;
26269;SDS011;15937;50.612;6.656;2023-04-01T23:05:00;2.22;;;1.00;;
26269;SDS011;15937;50.612;6.656;2023-04-01T23:09:23;1.50;;;1.27;;
26269;SDS011;15937;50.612;6.656;2023-04-01T23:13:34;1.13;;;0.80;;
26269;SDS011;15937;50.612;6.656;2023-04-01T23:17:49;2.22;;;1.23;;
26269;SDS011;15937;50.612;6.656;2023-04-01T23:30:57;11.45;;;6.80;;
26269;SDS011;15937;50.612;6.656;2023-04-01T23:34:59;21.50;;;10.80;;
26269;SDS011;15937;50.612;6.656;2023-04-01T23:39:04;12.77;;;8.00;;
26269;SDS011;15937;50.612;6.656;2023-04-01T23:43:24;11.20;;;7.80;;
26269;SDS011;15937;50.612;6.656;2023-04-01T23:47:37;6.95;;;6.03;;
26269;SDS011;15937;50.612;6.656;2023-04-01T23:51:55;15.18;;;9.48;;
